sensor_id;sensor_type;location;lat;lon;timestamp;P1;durP1;ratioP1;P2;durP2;ratioP2
22752;SDS011;11543;43.144;24.684;2023-06-04T00:00:53;11.93;;;6.35;;
22752;SDS011;11543;43.144;24.684;2023-06-04T00:03:19;13.15;;;6.35;;
22752;SDS011;11543;43.144;24.684;2023-06-04T00:05:44;15.88;;;6.45;;
22752;SDS011;11543;43.144;24.684;2023-06-04T00:08:10;9.95;;;6.22;;
22752;SDS011;11543;43.144;24.684;2023-06-04T00:10:35;10.40;;;6.38;;
22752;SDS011;11543;43.144;24.684;2023-06-04T00:13:01;14.65;;;6.70;;
22752;SDS011;11543;43.144;24.684;2023-06-04T00:15:26;13.60;;;7.22;;
22752;SDS011;11543;43.144;24.684;2023-06-04T00:17:52;10.75;;;6.60;;
22752;SDS011;11543;43.144;24.684;2023-06-04T00:20:17;12.55;;;6.75;;
22752;SDS011;11543;43.144;24.684;2023-06-04T00:22:43;15.57;;;6.85;;
22752;SDS011;11543;43.144;24.684;2023-06-04T00:25:09;18.92;;;6.47;;
22752;SDS011;11543;43.144;24.684;2023-06-04T00:27:35;18.20;;;6.70;;
22752;SDS011;11543;43.144;24.684;2023-06-04T00:30:01;16.63;;;6.80;;
22752;SDS011;11543;43.144;24.684;2023-06-04T00:32:27;16.13;;;6.95;;
22752;SDS011;11543;43.144;24.684;2023-06-04T00:34:53;17.45;;;6.43;;
22752;SDS011;11543;43.144;24.684;2023-06-04T00:37:23;17.17;;;5.97;;
22752;SDS011;11543;43.144;24.684;2023-06-04T00:39:49;19.55;;;5.57;;
22752;SDS011;11543;43.144;24.684;2023-06-04T00:42:15;13.43;;;5.70;;
22752;SDS011;11543;43.144;24.684;2023-06-04T00:44:41;15.90;;;5.35;;
22752;SDS011;11543;43.144;24.684;2023-06-04T00:47:12;14.35;;;4.75;;
22752;SDS011;11543;43.144;24.684;2023-06-04T00:49:39;17.05;;;4.80;;
22752;SDS011;11543;43.144;24.684;2023-06-04T00:52:07;17.73;;;4.40;;
22752;SDS011;11543;43.144;24.684;2023-06-04T00:54:34;11.45;;;4.75;;
22752;SDS011;11543;43.144;24.684;2023-06-04T00:57:01;11.85;;;4.03;;
22752;SDS011;11543;43.144;24.684;2023-06-04T00:59:28;10.65;;;3.92;;
22752;SDS011;11543;43.144;24.684;2023-06-04T01:02:01;12.88;;;4.15;;
22752;SDS011;11543;43.144;24.684;2023-06-04T01:07:00;10.83;;;3.77;;
22752;SDS011;11543;43.144;24.684;2023-06-04T01:09:27;16.35;;;3.60;;
22752;SDS011;11543;43.144;24.684;2023-06-04T01:11:55;8.88;;;3.30;;
22752;SDS011;11543;43.144;24.684;2023-06-04T01:14:23;12.32;;;3.45;;
22752;SDS011;11543;43.144;24.684;2023-06-04T01:16:56;11.93;;;3.50;;
22752;SDS011;11543;43.144;24.684;2023-06-04T01:27:57;15.05;;;3.55;;
22752;SDS011;11543;43.144;24.684;2023-06-04T01:30:27;11.95;;;2.90;;
22752;SDS011;11543;43.144;24.684;2023-06-04T01:32:57;10.73;;;3.00;;
22752;SDS011;11543;43.144;24.684;2023-06-04T01:35:25;15.52;;;3.03;;
22752;SDS011;11543;43.144;24.684;2023-06-04T01:37:51;7.25;;;2.70;;
22752;SDS011;11543;43.144;24.684;2023-06-04T01:40:17;11.02;;;2.95;;
22752;SDS011;11543;43.144;24.684;2023-06-04T01:42:42;17.33;;;2.63;;
22752;SDS011;11543;43.144;24.684;2023-06-04T01:45:08;14.65;;;2.80;;
22752;SDS011;11543;43.144;24.684;2023-06-04T01:47:34;11.43;;;2.65;;
22752;SDS011;11543;43.144;24.684;2023-06-04T01:50:00;10.20;;;2.80;;
22752;SDS011;11543;43.144;24.684;2023-06-04T01:52:26;14.55;;;2.88;;
22752;SDS011;11543;43.144;24.684;2023-06-04T01:54:52;11.15;;;2.35;;
22752;SDS011;11543;43.144;24.684;2023-06-04T01:57:21;6.57;;;2.47;;
22752;SDS011;11543;43.144;24.684;2023-06-04T01:59:47;8.18;;;2.58;;
22752;SDS011;11543;43.144;24.684;2023-06-04T02:02:13;13.52;;;2.50;;
22752;SDS011;11543;43.144;24.684;2023-06-04T02:04:40;8.50;;;2.33;;
22752;SDS011;11543;43.144;24.684;2023-06-04T02:07:09;8.60;;;2.28;;
22752;SDS011;11543;43.144;24.684;2023-06-04T02:09:36;7.47;;;2.30;;
22752;SDS011;11543;43.144;24.684;2023-06-04T02:12:02;12.63;;;2.60;;
22752;SDS011;11543;43.144;24.684;2023-06-04T02:14:28;9.50;;;2.17;;
22752;SDS011;11543;43.144;24.684;2023-06-04T02:16:54;7.72;;;2.30;;
22752;SDS011;11543;43.144;24.684;2023-06-04T02:19:23;7.55;;;2.35;;
22752;SDS011;11543;43.144;24.684;2023-06-04T02:21:50;7.93;;;2.50;;
22752;SDS011;11543;43.144;24.684;2023-06-04T02:24:16;7.40;;;2.17;;
22752;SDS011;11543;43.144;24.684;2023-06-04T02:26:41;8.30;;;2.65;;
22752;SDS011;11543;43.144;24.684;2023-06-04T02:29:06;7.20;;;2.30;;
22752;SDS011;11543;43.144;24.684;2023-06-04T02:31:32;9.48;;;2.08;;
22752;SDS011;11543;43.144;24.684;2023-06-04T02:33:57;11.82;;;2.33;;
22752;SDS011;11543;43.144;24.684;2023-06-04T02:36:23;6.43;;;2.30;;
22752;SDS011;11543;43.144;24.684;2023-06-04T02:38:48;4.65;;;2.10;;
22752;SDS011;11543;43.144;24.684;2023-06-04T02:41:14;9.88;;;2.17;;
22752;SDS011;11543;43.144;24.684;2023-06-04T02:43:40;9.38;;;2.33;;
22752;SDS011;11543;43.144;24.684;2023-06-04T02:46:05;6.50;;;2.30;;
22752;SDS011;11543;43.144;24.684;2023-06-04T02:48:31;8.52;;;2.45;;
22752;SDS011;11543;43.144;24.684;2023-06-04T02:50:57;7.07;;;2.38;;
22752;SDS011;11543;43.144;24.684;2023-06-04T02:53:22;6.65;;;2.22;;
22752;SDS011;11543;43.144;24.684;2023-06-04T02:55:48;9.05;;;2.42;;
22752;SDS011;11543;43.144;24.684;2023-06-04T02:58:16;9.00;;;2.00;;
22752;SDS011;11543;43.144;24.684;2023-06-04T03:00:41;6.80;;;2.10;;
22752;SDS011;11543;43.144;24.684;2023-06-04T03:03:07;10.43;;;2.80;;
22752;SDS011;11543;43.144;24.684;2023-06-04T03:05:32;12.25;;;2.10;;
22752;SDS011;11543;43.144;24.684;2023-06-04T03:07:58;8.65;;;2.35;;
22752;SDS011;11543;43.144;24.684;2023-06-04T03:10:26;11.95;;;2.70;;
22752;SDS011;11543;43.144;24.684;2023-06-04T03:12:51;9.95;;;2.38;;
22752;SDS011;11543;43.144;24.684;2023-06-04T03:15:17;6.47;;;2.05;;
22752;SDS011;11543;43.144;24.684;2023-06-04T03:17:42;8.38;;;2.22;;
22752;SDS011;11543;43.144;24.684;2023-06-04T03:20:09;5.15;;;2.10;;
22752;SDS011;11543;43.144;24.684;2023-06-04T03:22:35;7.47;;;2.50;;
22752;SDS011;11543;43.144;24.684;2023-06-04T03:25:01;7.50;;;2.20;;
22752;SDS011;11543;43.144;24.684;2023-06-04T03:27:28;5.78;;;2.22;;
22752;SDS011;11543;43.144;24.684;2023-06-04T03:29:55;10.73;;;2.35;;
22752;SDS011;11543;43.144;24.684;2023-06-04T03:32:20;12.63;;;2.35;;
22752;SDS011;11543;43.144;24.684;2023-06-04T03:34:46;5.07;;;2.10;;
22752;SDS011;11543;43.144;24.684;2023-06-04T03:37:11;10.60;;;2.67;;
22752;SDS011;11543;43.144;24.684;2023-06-04T03:39:37;8.00;;;2.38;;
22752;SDS011;11543;43.144;24.684;2023-06-04T03:42:02;8.88;;;2.35;;
22752;SDS011;11543;43.144;24.684;2023-06-04T03:44:28;5.93;;;2.40;;
22752;SDS011;11543;43.144;24.684;2023-06-04T03:46:54;9.82;;;2.38;;
22752;SDS011;11543;43.144;24.684;2023-06-04T03:49:19;10.70;;;2.53;;
22752;SDS011;11543;43.144;24.684;2023-06-04T03:51:45;11.23;;;2.33;;
22752;SDS011;11543;43.144;24.684;2023-06-04T03:54:10;8.73;;;2.30;;
22752;SDS011;11543;43.144;24.684;2023-06-04T03:56:42;10.35;;;2.63;;
22752;SDS011;11543;43.144;24.684;2023-06-04T03:59:08;8.68;;;2.70;;
22752;SDS011;11543;43.144;24.684;2023-06-04T04:01:34;8.82;;;2.40;;
22752;SDS011;11543;43.144;24.684;2023-06-04T04:03:59;6.22;;;2.60;;
22752;SDS011;11543;43.144;24.684;2023-06-04T04:06:25;11.00;;;2.70;;
22752;SDS011;11543;43.144;24.684;2023-06-04T04:08:50;11.88;;;2.40;;
22752;SDS011;11543;43.144;24.684;2023-06-04T04:11:16;9.57;;;2.58;;
22752;SDS011;11543;43.144;24.684;2023-06-04T04:13:43;7.82;;;2.00;;
22752;SDS011;11543;43.144;24.684;2023-06-04T04:16:10;12.68;;;2.70;;
22752;SDS011;11543;43.144;24.684;2023-06-04T04:18:35;12.43;;;2.38;;
22752;SDS011;11543;43.144;24.684;2023-06-04T04:21:02;8.13;;;2.33;;
22752;SDS011;11543;43.144;24.684;2023-06-04T04:23:29;13.80;;;2.50;;
22752;SDS011;11543;43.144;24.684;2023-06-04T04:25:58;9.82;;;2.40;;
22752;SDS011;11543;43.144;24.684;2023-06-04T04:28:24;14.00;;;2.58;;
22752;SDS011;11543;43.144;24.684;2023-06-04T04:30:57;6.75;;;2.30;;
22752;SDS011;11543;43.144;24.684;2023-06-04T04:33:23;5.20;;;2.25;;
22752;SDS011;11543;43.144;24.684;2023-06-04T04:35:51;8.77;;;2.50;;
22752;SDS011;11543;43.144;24.684;2023-06-04T04:38:20;4.63;;;2.50;;
22752;SDS011;11543;43.144;24.684;2023-06-04T04:40:49;8.13;;;2.38;;
22752;SDS011;11543;43.144;24.684;2023-06-04T04:43:19;5.07;;;2.60;;
22752;SDS011;11543;43.144;24.684;2023-06-04T04:45:54;7.43;;;2.33;;
22752;SDS011;11543;43.144;24.684;2023-06-04T04:48:19;12.50;;;2.60;;
22752;SDS011;11543;43.144;24.684;2023-06-04T04:50:45;5.80;;;2.40;;
22752;SDS011;11543;43.144;24.684;2023-06-04T04:53:10;6.03;;;2.58;;
22752;SDS011;11543;43.144;24.684;2023-06-04T04:55:36;6.35;;;2.42;;
22752;SDS011;11543;43.144;24.684;2023-06-04T04:58:01;6.60;;;2.35;;
22752;SDS011;11543;43.144;24.684;2023-06-04T05:00:28;11.45;;;2.60;;
22752;SDS011;11543;43.144;24.684;2023-06-04T05:02:55;5.97;;;2.50;;
22752;SDS011;11543;43.144;24.684;2023-06-04T05:05:20;6.55;;;2.33;;
22752;SDS011;11543;43.144;24.684;2023-06-04T05:07:46;7.85;;;2.10;;
22752;SDS011;11543;43.144;24.684;2023-06-04T05:10:12;5.90;;;2.45;;
22752;SDS011;11543;43.144;24.684;2023-06-04T05:12:38;3.92;;;2.55;;
22752;SDS011;11543;43.144;24.684;2023-06-04T05:15:03;3.60;;;2.30;;
22752;SDS011;11543;43.144;24.684;2023-06-04T05:17:29;8.40;;;2.47;;
22752;SDS011;11543;43.144;24.684;2023-06-04T05:20:00;3.72;;;2.35;;
22752;SDS011;11543;43.144;24.684;2023-06-04T05:22:29;7.22;;;2.50;;
22752;SDS011;11543;43.144;24.684;2023-06-04T05:24:57;7.35;;;2.60;;
22752;SDS011;11543;43.144;24.684;2023-06-04T05:27:24;8.02;;;2.80;;
22752;SDS011;11543;43.144;24.684;2023-06-04T05:29:50;7.32;;;2.60;;
22752;SDS011;11543;43.144;24.684;2023-06-04T05:32:16;7.22;;;2.80;;
22752;SDS011;11543;43.144;24.684;2023-06-04T05:34:42;7.63;;;2.60;;
22752;SDS011;11543;43.144;24.684;2023-06-04T05:37:10;6.90;;;2.55;;
22752;SDS011;11543;43.144;24.684;2023-06-04T05:39:37;10.25;;;2.42;;
22752;SDS011;11543;43.144;24.684;2023-06-04T05:42:03;6.35;;;2.58;;
22752;SDS011;11543;43.144;24.684;2023-06-04T05:44:31;7.35;;;2.35;;
22752;SDS011;11543;43.144;24.684;2023-06-04T05:46:57;5.68;;;2.47;;
22752;SDS011;11543;43.144;24.684;2023-06-04T05:49:23;7.13;;;2.60;;
22752;SDS011;11543;43.144;24.684;2023-06-04T05:51:49;3.60;;;2.50;;
22752;SDS011;11543;43.144;24.684;2023-06-04T05:54:15;8.50;;;2.70;;
22752;SDS011;11543;43.144;24.684;2023-06-04T05:56:40;4.68;;;2.45;;
22752;SDS011;11543;43.144;24.684;2023-06-04T05:59:05;6.70;;;2.78;;
22752;SDS011;11543;43.144;24.684;2023-06-04T06:01:31;9.32;;;2.50;;
22752;SDS011;11543;43.144;24.684;2023-06-04T06:03:57;7.32;;;3.00;;
22752;SDS011;11543;43.144;24.684;2023-06-04T06:06:22;9.93;;;2.92;;
22752;SDS011;11543;43.144;24.684;2023-06-04T06:08:48;8.70;;;3.25;;
22752;SDS011;11543;43.144;24.684;2023-06-04T06:11:15;8.88;;;3.03;;
22752;SDS011;11543;43.144;24.684;2023-06-04T06:13:41;9.10;;;3.08;;
22752;SDS011;11543;43.144;24.684;2023-06-04T06:16:07;9.95;;;3.20;;
22752;SDS011;11543;43.144;24.684;2023-06-04T06:18:32;13.88;;;2.80;;
22752;SDS011;11543;43.144;24.684;2023-06-04T06:20:58;4.57;;;2.78;;
22752;SDS011;11543;43.144;24.684;2023-06-04T06:23:23;10.05;;;2.90;;
22752;SDS011;11543;43.144;24.684;2023-06-04T06:25:49;12.90;;;3.10;;
22752;SDS011;11543;43.144;24.684;2023-06-04T06:28:17;9.05;;;3.03;;
22752;SDS011;11543;43.144;24.684;2023-06-04T06:30:45;8.57;;;2.90;;
22752;SDS011;11543;43.144;24.684;2023-06-04T06:33:11;5.20;;;2.63;;
22752;SDS011;11543;43.144;24.684;2023-06-04T06:35:37;9.95;;;3.13;;
22752;SDS011;11543;43.144;24.684;2023-06-04T06:38:03;8.85;;;2.28;;
22752;SDS011;11543;43.144;24.684;2023-06-04T06:40:28;8.38;;;2.90;;
22752;SDS011;11543;43.144;24.684;2023-06-04T06:42:55;8.50;;;3.38;;
22752;SDS011;11543;43.144;24.684;2023-06-04T06:45:21;7.70;;;2.70;;
22752;SDS011;11543;43.144;24.684;2023-06-04T06:47:46;6.03;;;2.60;;
22752;SDS011;11543;43.144;24.684;2023-06-04T06:50:15;6.25;;;2.80;;
22752;SDS011;11543;43.144;24.684;2023-06-04T06:52:41;8.13;;;2.60;;
22752;SDS011;11543;43.144;24.684;2023-06-04T06:55:06;8.55;;;2.80;;
22752;SDS011;11543;43.144;24.684;2023-06-04T06:57:33;5.18;;;2.88;;
22752;SDS011;11543;43.144;24.684;2023-06-04T06:59:58;6.32;;;2.65;;
22752;SDS011;11543;43.144;24.684;2023-06-04T07:02:25;9.80;;;2.85;;
22752;SDS011;11543;43.144;24.684;2023-06-04T07:04:50;10.98;;;2.53;;
22752;SDS011;11543;43.144;24.684;2023-06-04T07:07:16;11.35;;;2.90;;
22752;SDS011;11543;43.144;24.684;2023-06-04T07:09:42;7.50;;;2.50;;
22752;SDS011;11543;43.144;24.684;2023-06-04T07:12:07;5.03;;;2.72;;
22752;SDS011;11543;43.144;24.684;2023-06-04T07:14:33;12.25;;;3.05;;
22752;SDS011;11543;43.144;24.684;2023-06-04T07:16:58;9.55;;;2.75;;
22752;SDS011;11543;43.144;24.684;2023-06-04T07:19:24;6.38;;;2.58;;
22752;SDS011;11543;43.144;24.684;2023-06-04T07:21:49;12.32;;;2.72;;
22752;SDS011;11543;43.144;24.684;2023-06-04T07:24:15;7.95;;;2.40;;
22752;SDS011;11543;43.144;24.684;2023-06-04T07:26:41;4.65;;;2.53;;
22752;SDS011;11543;43.144;24.684;2023-06-04T07:29:06;8.05;;;2.55;;
22752;SDS011;11543;43.144;24.684;2023-06-04T07:31:32;5.68;;;2.88;;
22752;SDS011;11543;43.144;24.684;2023-06-04T07:33:58;8.00;;;2.88;;
22752;SDS011;11543;43.144;24.684;2023-06-04T07:36:23;9.57;;;2.70;;
22752;SDS011;11543;43.144;24.684;2023-06-04T07:38:49;6.50;;;2.60;;
22752;SDS011;11543;43.144;24.684;2023-06-04T07:41:15;6.03;;;2.78;;
22752;SDS011;11543;43.144;24.684;2023-06-04T07:43:40;5.90;;;2.80;;
22752;SDS011;11543;43.144;24.684;2023-06-04T07:46:08;10.38;;;2.63;;
22752;SDS011;11543;43.144;24.684;2023-06-04T07:48:34;7.68;;;2.50;;
22752;SDS011;11543;43.144;24.684;2023-06-04T07:51:00;5.30;;;2.20;;
22752;SDS011;11543;43.144;24.684;2023-06-04T07:53:29;7.50;;;2.38;;
22752;SDS011;11543;43.144;24.684;2023-06-04T07:55:56;9.73;;;2.83;;
22752;SDS011;11543;43.144;24.684;2023-06-04T07:58:22;5.65;;;2.33;;
22752;SDS011;11543;43.144;24.684;2023-06-04T08:00:47;5.10;;;2.40;;
22752;SDS011;11543;43.144;24.684;2023-06-04T08:03:13;11.35;;;2.83;;
22752;SDS011;11543;43.144;24.684;2023-06-04T08:05:40;6.65;;;2.63;;
22752;SDS011;11543;43.144;24.684;2023-06-04T08:08:06;6.45;;;2.42;;
22752;SDS011;11543;43.144;24.684;2023-06-04T08:10:31;7.63;;;2.50;;
22752;SDS011;11543;43.144;24.684;2023-06-04T08:12:57;3.83;;;2.67;;
22752;SDS011;11543;43.144;24.684;2023-06-04T08:15:23;9.80;;;3.25;;
22752;SDS011;11543;43.144;24.684;2023-06-04T08:17:49;7.47;;;2.28;;
22752;SDS011;11543;43.144;24.684;2023-06-04T08:20:14;8.82;;;2.55;;
22752;SDS011;11543;43.144;24.684;2023-06-04T08:22:40;7.90;;;2.53;;
22752;SDS011;11543;43.144;24.684;2023-06-04T08:25:08;4.82;;;2.30;;
22752;SDS011;11543;43.144;24.684;2023-06-04T08:27:34;9.95;;;2.88;;
22752;SDS011;11543;43.144;24.684;2023-06-04T08:30:00;6.32;;;2.55;;
22752;SDS011;11543;43.144;24.684;2023-06-04T08:32:25;9.05;;;2.35;;
22752;SDS011;11543;43.144;24.684;2023-06-04T08:34:51;7.85;;;2.70;;
22752;SDS011;11543;43.144;24.684;2023-06-04T08:37:17;4.25;;;2.50;;
22752;SDS011;11543;43.144;24.684;2023-06-04T08:39:43;7.78;;;2.70;;
22752;SDS011;11543;43.144;24.684;2023-06-04T08:42:09;6.20;;;2.88;;
22752;SDS011;11543;43.144;24.684;2023-06-04T08:44:45;5.80;;;2.40;;
22752;SDS011;11543;43.144;24.684;2023-06-04T08:47:16;5.78;;;2.30;;
22752;SDS011;11543;43.144;24.684;2023-06-04T08:49:45;4.47;;;2.53;;
22752;SDS011;11543;43.144;24.684;2023-06-04T08:52:15;5.05;;;2.53;;
22752;SDS011;11543;43.144;24.684;2023-06-04T08:54:42;6.50;;;2.63;;
22752;SDS011;11543;43.144;24.684;2023-06-04T08:57:08;8.52;;;2.60;;
22752;SDS011;11543;43.144;24.684;2023-06-04T08:59:34;6.32;;;2.53;;
22752;SDS011;11543;43.144;24.684;2023-06-04T09:02:00;6.07;;;2.60;;
22752;SDS011;11543;43.144;24.684;2023-06-04T09:04:27;5.72;;;2.63;;
22752;SDS011;11543;43.144;24.684;2023-06-04T09:06:54;8.55;;;3.08;;
22752;SDS011;11543;43.144;24.684;2023-06-04T09:09:20;6.50;;;2.45;;
22752;SDS011;11543;43.144;24.684;2023-06-04T09:11:52;7.32;;;2.90;;
22752;SDS011;11543;43.144;24.684;2023-06-04T09:16:50;5.53;;;2.67;;
22752;SDS011;11543;43.144;24.684;2023-06-04T09:19:18;4.37;;;2.60;;
22752;SDS011;11543;43.144;24.684;2023-06-04T09:21:57;6.70;;;2.50;;
22752;SDS011;11543;43.144;24.684;2023-06-04T09:24:24;7.97;;;2.60;;
22752;SDS011;11543;43.144;24.684;2023-06-04T09:27:08;6.60;;;2.95;;
22752;SDS011;11543;43.144;24.684;2023-06-04T09:29:51;7.57;;;2.70;;
22752;SDS011;11543;43.144;24.684;2023-06-04T09:32:24;11.70;;;3.00;;
22752;SDS011;11543;43.144;24.684;2023-06-04T09:34:54;10.43;;;2.75;;
22752;SDS011;11543;43.144;24.684;2023-06-04T09:37:22;8.88;;;3.00;;
22752;SDS011;11543;43.144;24.684;2023-06-04T09:39:57;10.60;;;2.78;;
22752;SDS011;11543;43.144;24.684;2023-06-04T09:42:23;7.85;;;2.60;;
22752;SDS011;11543;43.144;24.684;2023-06-04T09:44:48;5.85;;;2.47;;
22752;SDS011;11543;43.144;24.684;2023-06-04T09:47:14;6.97;;;2.70;;
22752;SDS011;11543;43.144;24.684;2023-06-04T09:49:41;10.48;;;2.83;;
22752;SDS011;11543;43.144;24.684;2023-06-04T09:52:10;6.82;;;3.08;;
22752;SDS011;11543;43.144;24.684;2023-06-04T09:54:36;8.55;;;2.88;;
22752;SDS011;11543;43.144;24.684;2023-06-04T09:57:03;8.40;;;3.10;;
22752;SDS011;11543;43.144;24.684;2023-06-04T09:59:38;8.35;;;2.90;;
22752;SDS011;11543;43.144;24.684;2023-06-04T10:02:05;7.00;;;2.45;;
22752;SDS011;11543;43.144;24.684;2023-06-04T10:04:36;10.68;;;2.50;;
22752;SDS011;11543;43.144;24.684;2023-06-04T10:07:05;6.05;;;2.38;;
22752;SDS011;11543;43.144;24.684;2023-06-04T10:09:32;11.60;;;2.60;;
22752;SDS011;11543;43.144;24.684;2023-06-04T10:12:00;6.50;;;2.30;;
22752;SDS011;11543;43.144;24.684;2023-06-04T10:14:39;4.10;;;2.30;;
22752;SDS011;11543;43.144;24.684;2023-06-04T10:17:08;6.47;;;2.45;;
22752;SDS011;11543;43.144;24.684;2023-06-04T10:19:36;4.82;;;2.47;;
22752;SDS011;11543;43.144;24.684;2023-06-04T10:22:03;6.45;;;2.70;;
22752;SDS011;11543;43.144;24.684;2023-06-04T10:24:30;5.38;;;2.80;;
22752;SDS011;11543;43.144;24.684;2023-06-04T10:26:59;6.97;;;2.65;;
22752;SDS011;11543;43.144;24.684;2023-06-04T10:29:25;3.42;;;2.58;;
22752;SDS011;11543;43.144;24.684;2023-06-04T10:31:54;8.05;;;2.95;;
22752;SDS011;11543;43.144;24.684;2023-06-04T10:34:20;4.28;;;2.80;;
22752;SDS011;11543;43.144;24.684;2023-06-04T10:36:46;6.47;;;2.88;;
22752;SDS011;11543;43.144;24.684;2023-06-04T10:39:12;6.78;;;3.53;;
22752;SDS011;11543;43.144;24.684;2023-06-04T10:41:59;8.98;;;2.90;;
22752;SDS011;11543;43.144;24.684;2023-06-04T10:44:32;7.22;;;2.92;;
22752;SDS011;11543;43.144;24.684;2023-06-04T10:47:20;8.63;;;3.17;;
22752;SDS011;11543;43.144;24.684;2023-06-04T10:49:46;6.57;;;3.00;;
22752;SDS011;11543;43.144;24.684;2023-06-04T10:52:12;5.07;;;2.75;;
22752;SDS011;11543;43.144;24.684;2023-06-04T10:54:38;9.32;;;3.20;;
22752;SDS011;11543;43.144;24.684;2023-06-04T10:57:13;11.90;;;3.50;;
22752;SDS011;11543;43.144;24.684;2023-06-04T10:59:41;6.93;;;3.30;;
22752;SDS011;11543;43.144;24.684;2023-06-04T11:02:18;5.82;;;3.08;;
22752;SDS011;11543;43.144;24.684;2023-06-04T11:04:46;7.13;;;2.83;;
22752;SDS011;11543;43.144;24.684;2023-06-04T11:07:12;9.35;;;3.50;;
22752;SDS011;11543;43.144;24.684;2023-06-04T11:09:47;6.50;;;3.45;;
22752;SDS011;11543;43.144;24.684;2023-06-04T11:12:13;7.43;;;3.53;;
22752;SDS011;11543;43.144;24.684;2023-06-04T11:14:39;5.07;;;3.40;;
22752;SDS011;11543;43.144;24.684;2023-06-04T11:17:09;10.80;;;3.75;;
22752;SDS011;11543;43.144;24.684;2023-06-04T11:19:36;8.70;;;3.17;;
22752;SDS011;11543;43.144;24.684;2023-06-04T11:22:02;7.63;;;3.42;;
22752;SDS011;11543;43.144;24.684;2023-06-04T11:24:28;5.75;;;3.10;;
22752;SDS011;11543;43.144;24.684;2023-06-04T11:26:56;8.85;;;3.03;;
22752;SDS011;11543;43.144;24.684;2023-06-04T11:29:24;5.57;;;2.92;;
22752;SDS011;11543;43.144;24.684;2023-06-04T11:31:52;8.57;;;3.20;;
22752;SDS011;11543;43.144;24.684;2023-06-04T11:34:28;15.57;;;3.78;;
22752;SDS011;11543;43.144;24.684;2023-06-04T11:36:55;10.13;;;3.20;;
22752;SDS011;11543;43.144;24.684;2023-06-04T11:39:33;15.10;;;3.40;;
22752;SDS011;11543;43.144;24.684;2023-06-04T11:42:04;9.15;;;3.28;;
22752;SDS011;11543;43.144;24.684;2023-06-04T11:44:31;6.95;;;3.30;;
22752;SDS011;11543;43.144;24.684;2023-06-04T11:46:56;7.97;;;3.25;;
22752;SDS011;11543;43.144;24.684;2023-06-04T11:49:22;10.30;;;3.30;;
22752;SDS011;11543;43.144;24.684;2023-06-04T11:51:48;7.78;;;3.35;;
22752;SDS011;11543;43.144;24.684;2023-06-04T11:54:18;11.43;;;2.90;;
22752;SDS011;11543;43.144;24.684;2023-06-04T11:56:45;5.68;;;3.33;;
22752;SDS011;11543;43.144;24.684;2023-06-04T11:59:15;12.48;;;3.42;;
22752;SDS011;11543;43.144;24.684;2023-06-04T12:01:45;5.15;;;3.33;;
22752;SDS011;11543;43.144;24.684;2023-06-04T12:04:12;7.40;;;3.65;;
22752;SDS011;11543;43.144;24.684;2023-06-04T12:06:54;7.30;;;3.80;;
22752;SDS011;11543;43.144;24.684;2023-06-04T12:09:26;12.90;;;4.00;;
22752;SDS011;11543;43.144;24.684;2023-06-04T12:11:59;8.45;;;4.22;;
22752;SDS011;11543;43.144;24.684;2023-06-04T12:14:32;8.73;;;4.00;;
22752;SDS011;11543;43.144;24.684;2023-06-04T12:16:58;13.93;;;4.35;;
22752;SDS011;11543;43.144;24.684;2023-06-04T12:19:26;8.55;;;4.40;;
22752;SDS011;11543;43.144;24.684;2023-06-04T12:22:07;10.18;;;4.40;;
22752;SDS011;11543;43.144;24.684;2023-06-04T12:24:33;11.17;;;5.27;;
22752;SDS011;11543;43.144;24.684;2023-06-04T12:27:11;9.20;;;4.97;;
22752;SDS011;11543;43.144;24.684;2023-06-04T12:29:39;13.60;;;4.90;;
22752;SDS011;11543;43.144;24.684;2023-06-04T12:32:08;9.45;;;5.03;;
22752;SDS011;11543;43.144;24.684;2023-06-04T12:34:36;15.13;;;4.90;;
22752;SDS011;11543;43.144;24.684;2023-06-04T12:37:02;14.98;;;5.15;;
22752;SDS011;11543;43.144;24.684;2023-06-04T12:39:35;11.77;;;5.30;;
22752;SDS011;11543;43.144;24.684;2023-06-04T12:42:07;12.55;;;4.88;;
22752;SDS011;11543;43.144;24.684;2023-06-04T12:44:39;11.23;;;5.25;;
22752;SDS011;11543;43.144;24.684;2023-06-04T12:47:05;11.27;;;5.50;;
22752;SDS011;11543;43.144;24.684;2023-06-04T12:49:31;10.95;;;4.85;;
22752;SDS011;11543;43.144;24.684;2023-06-04T12:51:57;10.43;;;5.90;;
22752;SDS011;11543;43.144;24.684;2023-06-04T12:54:24;13.48;;;5.85;;
22752;SDS011;11543;43.144;24.684;2023-06-04T12:56:52;10.60;;;5.10;;
22752;SDS011;11543;43.144;24.684;2023-06-04T12:59:17;18.05;;;4.80;;
22752;SDS011;11543;43.144;24.684;2023-06-04T13:01:43;11.73;;;4.80;;
22752;SDS011;11543;43.144;24.684;2023-06-04T13:04:08;10.63;;;5.10;;
22752;SDS011;11543;43.144;24.684;2023-06-04T13:06:34;11.02;;;4.85;;
22752;SDS011;11543;43.144;24.684;2023-06-04T13:09:02;11.45;;;5.10;;
22752;SDS011;11543;43.144;24.684;2023-06-04T13:11:34;11.75;;;5.00;;
22752;SDS011;11543;43.144;24.684;2023-06-04T13:14:02;13.55;;;5.38;;
22752;SDS011;11543;43.144;24.684;2023-06-04T13:16:28;11.30;;;4.88;;
22752;SDS011;11543;43.144;24.684;2023-06-04T13:18:55;13.95;;;4.78;;
22752;SDS011;11543;43.144;24.684;2023-06-04T13:21:20;11.13;;;4.40;;
22752;SDS011;11543;43.144;24.684;2023-06-04T13:23:46;10.98;;;4.70;;
22752;SDS011;11543;43.144;24.684;2023-06-04T13:26:11;11.82;;;4.97;;
22752;SDS011;11543;43.144;24.684;2023-06-04T13:28:37;12.18;;;5.22;;
22752;SDS011;11543;43.144;24.684;2023-06-04T13:31:03;10.00;;;5.28;;
22752;SDS011;11543;43.144;24.684;2023-06-04T13:33:29;12.32;;;4.88;;
22752;SDS011;11543;43.144;24.684;2023-06-04T13:35:55;13.70;;;5.10;;
22752;SDS011;11543;43.144;24.684;2023-06-04T13:38:21;11.23;;;4.82;;
22752;SDS011;11543;43.144;24.684;2023-06-04T13:40:46;13.68;;;5.55;;
22752;SDS011;11543;43.144;24.684;2023-06-04T13:43:12;8.13;;;4.82;;
22752;SDS011;11543;43.144;24.684;2023-06-04T13:45:37;12.05;;;5.32;;
22752;SDS011;11543;43.144;24.684;2023-06-04T13:48:05;13.20;;;5.47;;
22752;SDS011;11543;43.144;24.684;2023-06-04T13:50:32;10.23;;;5.15;;
22752;SDS011;11543;43.144;24.684;2023-06-04T13:52:58;9.88;;;5.15;;
22752;SDS011;11543;43.144;24.684;2023-06-04T13:55:23;9.15;;;5.22;;
22752;SDS011;11543;43.144;24.684;2023-06-04T13:57:51;13.10;;;5.13;;
22752;SDS011;11543;43.144;24.684;2023-06-04T14:00:17;15.00;;;5.38;;
22752;SDS011;11543;43.144;24.684;2023-06-04T14:02:43;13.27;;;5.30;;
22752;SDS011;11543;43.144;24.684;2023-06-04T14:05:08;13.27;;;5.50;;
22752;SDS011;11543;43.144;24.684;2023-06-04T14:07:34;13.00;;;5.80;;
22752;SDS011;11543;43.144;24.684;2023-06-04T14:10:00;10.73;;;4.95;;
22752;SDS011;11543;43.144;24.684;2023-06-04T14:12:25;9.05;;;4.93;;
22752;SDS011;11543;43.144;24.684;2023-06-04T14:14:51;10.10;;;5.28;;
22752;SDS011;11543;43.144;24.684;2023-06-04T14:17:16;9.95;;;5.13;;
22752;SDS011;11543;43.144;24.684;2023-06-04T14:19:42;13.10;;;5.20;;
22752;SDS011;11543;43.144;24.684;2023-06-04T14:22:09;12.73;;;5.85;;
22752;SDS011;11543;43.144;24.684;2023-06-04T14:24:35;11.82;;;5.30;;
22752;SDS011;11543;43.144;24.684;2023-06-04T14:27:02;13.75;;;6.00;;
22752;SDS011;11543;43.144;24.684;2023-06-04T14:29:27;10.50;;;5.38;;
22752;SDS011;11543;43.144;24.684;2023-06-04T14:31:53;11.65;;;5.68;;
22752;SDS011;11543;43.144;24.684;2023-06-04T14:34:18;11.88;;;5.70;;
22752;SDS011;11543;43.144;24.684;2023-06-04T14:36:45;10.48;;;5.03;;
22752;SDS011;11543;43.144;24.684;2023-06-04T14:39:12;11.20;;;5.28;;
22752;SDS011;11543;43.144;24.684;2023-06-04T14:41:37;9.95;;;5.18;;